PWSweather.com
Personal Weather Stations
Station Observations
MART18
Seleziona Stato..., MartinsicuroIT italia

Seleziona Stato...MartinsicuroIT italia

Lat: 42.885169, Lon: 13.918447300000025

Elevation: 3

Station Type: Davis vantage vp2

branciuno67@gmail.com

High Low Average
Temperature 85.3°F29.6°C 75.4°F24.1°C 81.4°F27.4°C
Dew Point 74.3°F23.5°C 64.9°F18.3°C 70.4°F21.3°C
Winds 8.9 mph 14.3 kmh Calm Calm 4.0 mph SSE6.4 kmh SSE
Wind Gusts 15.0 mph24.1 kmh -- 7.0 mph11.3 kmh
Humidity 78% 59% 70%
Pressure 29.94 in1013.9 mb 29.89 in1012.2 mb -
Precipitation 0.00 in0.0 mm - -
Hour Temp Dew Point Humidity Winds Wind Gusts Pressure Precip Precip Rate Daily Precip Total
12:00 AM 78.6°F25.9°C 69.3°F20.7°C 73% 2.9 mph WNW4.7 kmh WNW 6.0 mph9.7 kmh 29.92 in1013.2 mb 0.00 in0.0 mm 0.00 in0.0 mm 0.00 in0.0 mm
12:05 AM 78.6°F25.9°C 69.3°F20.7°C 73% 2.9 mph W4.7 kmh W 6.9 mph11.1 kmh 29.91 in1012.9 mb 0.00 in0.0 mm 0.00 in0.0 mm 0.00 in0.0 mm
12:10 AM 78.6°F25.9°C 68.9°F20.5°C 72% 2.9 mph WNW4.7 kmh WNW 6.9 mph11.1 kmh 29.91 in1012.9 mb 0.00 in0.0 mm 0.00 in0.0 mm 0.00 in0.0 mm
12:15 AM 78.4°F25.8°C 68.7°F20.4°C 72% 2.9 mph NW4.7 kmh NW 6.0 mph9.7 kmh 29.91 in1012.9 mb 0.00 in0.0 mm 0.00 in0.0 mm 0.00 in0.0 mm
12:20 AM 78.3°F25.7°C 68.5°F20.3°C 72% 2.9 mph WNW4.7 kmh WNW 6.9 mph11.1 kmh 29.91 in1012.9 mb 0.00 in0.0 mm 0.00 in0.0 mm 0.00 in0.0 mm
12:25 AM 78.1°F25.6°C 68.4°F20.2°C 72% 4.0 mph W6.4 kmh W 8.9 mph14.3 kmh 29.91 in1012.9 mb 0.00 in0.0 mm 0.00 in0.0 mm 0.00 in0.0 mm
12:30 AM 77.9°F25.5°C 68.2°F20.1°C 72% 4.0 mph W6.4 kmh W 8.1 mph13.0 kmh 29.91 in1012.9 mb 0.00 in0.0 mm 0.00 in0.0 mm 0.00 in0.0 mm
12:35 AM 77.7°F25.4°C 67.6°F19.8°C 71% 4.0 mph NW6.4 kmh NW 6.9 mph11.1 kmh 29.91 in1012.9 mb 0.00 in0.0 mm 0.00 in0.0 mm 0.00 in0.0 mm
12:40 AM 77.5°F25.3°C 67.5°F19.7°C 71% 4.0 mph WNW6.4 kmh WNW 10.1 mph16.3 kmh 29.91 in1012.9 mb 0.00 in0.0 mm 0.00 in0.0 mm 0.00 in0.0 mm
12:45 AM 77.5°F25.3°C 67.5°F19.7°C 71% 4.0 mph W6.4 kmh W 8.1 mph13.0 kmh 29.91 in1012.9 mb 0.00 in0.0 mm 0.00 in0.0 mm 0.00 in0.0 mm
12:50 AM 77.5°F25.3°C 67.5°F19.7°C 71% 4.0 mph NW6.4 kmh NW 10.1 mph16.3 kmh 29.91 in1012.9 mb 0.00 in0.0 mm 0.00 in0.0 mm 0.00 in0.0 mm
12:55 AM 77.4°F25.2°C 67.3°F19.6°C 71% 4.0 mph N6.4 kmh N 6.0 mph9.7 kmh 29.91 in1012.9 mb 0.00 in0.0 mm 0.00 in0.0 mm 0.00 in0.0 mm
01:00 AM 77.4°F25.2°C 67.3°F19.6°C 71% 2.9 mph WNW4.7 kmh WNW 8.1 mph13.0 kmh 29.91 in1012.9 mb 0.00 in0.0 mm 0.00 in0.0 mm 0.00 in0.0 mm
01:05 AM 77.2°F25.1°C 67.1°F19.5°C 71% 2.9 mph W4.7 kmh W 6.9 mph11.1 kmh 29.91 in1012.9 mb 0.00 in0.0 mm 0.00 in0.0 mm 0.00 in0.0 mm
01:10 AM 77.2°F25.1°C 67.1°F19.5°C 71% 2.9 mph NW4.7 kmh NW 4.9 mph7.9 kmh 29.91 in1012.9 mb 0.00 in0.0 mm 0.00 in0.0 mm 0.00 in0.0 mm
01:15 AM 77.0°F25.0°C 66.9°F19.4°C 71% 2.9 mph NW4.7 kmh NW 8.1 mph13.0 kmh 29.91 in1012.9 mb 0.00 in0.0 mm 0.00 in0.0 mm 0.00 in0.0 mm
01:20 AM 76.8°F24.9°C 66.7°F19.3°C 71% 2.9 mph W4.7 kmh W 8.1 mph13.0 kmh 29.91 in1012.9 mb 0.00 in0.0 mm 0.00 in0.0 mm 0.00 in0.0 mm
01:25 AM 76.8°F24.9°C 66.7°F19.3°C 71% 2.9 mph WNW4.7 kmh WNW 8.1 mph13.0 kmh 29.91 in1012.9 mb 0.00 in0.0 mm 0.00 in0.0 mm 0.00 in0.0 mm
01:30 AM 76.8°F24.9°C 66.7°F19.3°C 71% 4.0 mph W6.4 kmh W 8.9 mph14.3 kmh 29.91 in1012.9 mb 0.00 in0.0 mm 0.00 in0.0 mm 0.00 in0.0 mm
01:35 AM 76.6°F24.8°C 66.6°F19.2°C 71% 4.0 mph W6.4 kmh W 8.9 mph14.3 kmh 29.91 in1012.9 mb 0.00 in0.0 mm 0.00 in0.0 mm 0.00 in0.0 mm
01:40 AM 76.6°F24.8°C 66.6°F19.2°C 71% 2.9 mph WNW4.7 kmh WNW 6.0 mph9.7 kmh 29.91 in1012.9 mb 0.00 in0.0 mm 0.00 in0.0 mm 0.00 in0.0 mm
01:45 AM 76.8°F24.9°C 66.7°F19.3°C 71% 2.0 mph W3.2 kmh W 6.0 mph9.7 kmh 29.91 in1012.9 mb 0.00 in0.0 mm 0.00 in0.0 mm 0.00 in0.0 mm
01:50 AM 76.8°F24.9°C 66.7°F19.3°C 71% 2.0 mph WNW3.2 kmh WNW 6.0 mph9.7 kmh 29.90 in1012.5 mb 0.00 in0.0 mm 0.00 in0.0 mm 0.00 in0.0 mm
01:55 AM 77.0°F25.0°C 66.9°F19.4°C 71% 2.9 mph NNW4.7 kmh NNW 6.0 mph9.7 kmh 29.90 in1012.5 mb 0.00 in0.0 mm 0.00 in0.0 mm 0.00 in0.0 mm
02:00 AM 76.8°F24.9°C 66.7°F19.3°C 71% 2.0 mph W3.2 kmh W 7.0 mph11.3 kmh 29.90 in1012.5 mb 0.00 in0.0 mm 0.00 in0.0 mm 0.00 in0.0 mm
02:05 AM 76.6°F24.8°C 66.6°F19.2°C 71% 2.0 mph WNW3.2 kmh WNW 6.0 mph9.7 kmh 29.90 in1012.5 mb 0.00 in0.0 mm 0.00 in0.0 mm 0.00 in0.0 mm
02:10 AM 76.5°F24.7°C 66.4°F19.1°C 71% 2.0 mph WNW3.2 kmh WNW 4.0 mph6.4 kmh 29.90 in1012.5 mb 0.00 in0.0 mm 0.00 in0.0 mm 0.00 in0.0 mm
02:15 AM 76.3°F24.6°C 66.6°F19.2°C 72% 2.9 mph NW4.7 kmh NW 6.0 mph9.7 kmh 29.90 in1012.5 mb 0.00 in0.0 mm 0.00 in0.0 mm 0.00 in0.0 mm
02:20 AM 75.9°F24.4°C 66.2°F19.0°C 72% 2.9 mph NW4.7 kmh NW 6.9 mph11.1 kmh 29.90 in1012.5 mb 0.00 in0.0 mm 0.00 in0.0 mm 0.00 in0.0 mm
02:25 AM 75.9°F24.4°C 66.2°F19.0°C 72% 2.9 mph W4.7 kmh W 6.9 mph11.1 kmh 29.90 in1012.5 mb 0.00 in0.0 mm 0.00 in0.0 mm 0.00 in0.0 mm
02:30 AM 75.9°F24.4°C 65.8°F18.8°C 71% 2.9 mph NW4.7 kmh NW 6.9 mph11.1 kmh 29.90 in1012.5 mb 0.00 in0.0 mm 0.00 in0.0 mm 0.00 in0.0 mm
02:35 AM 75.7°F24.3°C 66.0°F18.9°C 72% 2.9 mph NW4.7 kmh NW 6.0 mph9.7 kmh 29.90 in1012.5 mb 0.00 in0.0 mm 0.00 in0.0 mm 0.00 in0.0 mm
02:40 AM 75.7°F24.3°C 66.0°F18.9°C 72% 2.9 mph W4.7 kmh W 6.0 mph9.7 kmh 29.90 in1012.5 mb 0.00 in0.0 mm 0.00 in0.0 mm 0.00 in0.0 mm
02:45 AM 75.9°F24.4°C 66.2°F19.0°C 72% 2.9 mph NW4.7 kmh NW 6.0 mph9.7 kmh 29.90 in1012.5 mb 0.00 in0.0 mm 0.00 in0.0 mm 0.00 in0.0 mm
02:50 AM 76.1°F24.5°C 66.0°F18.9°C 71% 2.9 mph NW4.7 kmh NW 8.0 mph12.9 kmh 29.90 in1012.5 mb 0.00 in0.0 mm 0.00 in0.0 mm 0.00 in0.0 mm
02:55 AM 76.3°F24.6°C 66.2°F19.0°C 71% 2.9 mph NW4.7 kmh NW 4.9 mph7.9 kmh 29.90 in1012.5 mb 0.00 in0.0 mm 0.00 in0.0 mm 0.00 in0.0 mm
03:00 AM 76.5°F24.7°C 66.4°F19.1°C 71% 2.0 mph WNW3.2 kmh WNW 6.9 mph11.1 kmh 29.90 in1012.5 mb 0.00 in0.0 mm 0.00 in0.0 mm 0.00 in0.0 mm
03:05 AM 76.5°F24.7°C 66.0°F18.9°C 70% 2.0 mph W3.2 kmh W 4.9 mph7.9 kmh 29.90 in1012.5 mb 0.00 in0.0 mm 0.00 in0.0 mm 0.00 in0.0 mm
03:10 AM 76.6°F24.8°C 66.2°F19.0°C 70% 2.0 mph WNW3.2 kmh WNW 4.0 mph6.4 kmh 29.90 in1012.5 mb 0.00 in0.0 mm 0.00 in0.0 mm 0.00 in0.0 mm
03:15 AM 76.6°F24.8°C 66.2°F19.0°C 70% 2.0 mph NW3.2 kmh NW 4.9 mph7.9 kmh 29.90 in1012.5 mb 0.00 in0.0 mm 0.00 in0.0 mm 0.00 in0.0 mm
03:20 AM 76.5°F24.7°C 66.0°F18.9°C 70% 2.0 mph WNW3.2 kmh WNW 4.9 mph7.9 kmh 29.90 in1012.5 mb 0.00 in0.0 mm 0.00 in0.0 mm 0.00 in0.0 mm
03:25 AM 76.1°F24.5°C 65.7°F18.7°C 70% 2.0 mph NW3.2 kmh NW 4.9 mph7.9 kmh 29.90 in1012.5 mb 0.00 in0.0 mm 0.00 in0.0 mm 0.00 in0.0 mm
03:30 AM 76.1°F24.5°C 66.0°F18.9°C 71% 2.0 mph NW3.2 kmh NW 6.0 mph9.7 kmh 29.90 in1012.5 mb 0.00 in0.0 mm 0.00 in0.0 mm 0.00 in0.0 mm
03:35 AM 75.9°F24.4°C 65.5°F18.6°C 70% 2.0 mph N3.2 kmh N 4.9 mph7.9 kmh 29.90 in1012.5 mb 0.00 in0.0 mm 0.00 in0.0 mm 0.00 in0.0 mm
03:40 AM 75.7°F24.3°C 65.7°F18.7°C 71% 2.0 mph NW3.2 kmh NW 4.9 mph7.9 kmh 29.90 in1012.5 mb 0.00 in0.0 mm 0.00 in0.0 mm 0.00 in0.0 mm
03:45 AM 75.4°F24.1°C 65.3°F18.5°C 71% 2.9 mph NNW4.7 kmh NNW 8.1 mph13.0 kmh 29.90 in1012.5 mb 0.00 in0.0 mm 0.00 in0.0 mm 0.00 in0.0 mm
03:51 AM 75.4°F24.1°C 65.7°F18.7°C 72% 2.9 mph W4.7 kmh W 6.9 mph11.1 kmh 29.90 in1012.5 mb 0.00 in0.0 mm 0.00 in0.0 mm 0.00 in0.0 mm
03:56 AM 75.4°F24.1°C 65.7°F18.7°C 72% 2.9 mph NW4.7 kmh NW 6.0 mph9.7 kmh 29.90 in1012.5 mb 0.00 in0.0 mm 0.00 in0.0 mm 0.00 in0.0 mm
04:01 AM 75.7°F24.3°C 65.7°F18.7°C 71% 2.9 mph W4.7 kmh W 6.9 mph11.1 kmh 29.90 in1012.5 mb 0.00 in0.0 mm 0.00 in0.0 mm 0.00 in0.0 mm
04:06 AM 76.3°F24.6°C 65.8°F18.8°C 70% 4.0 mph W6.4 kmh W 8.9 mph14.3 kmh 29.90 in1012.5 mb 0.00 in0.0 mm 0.00 in0.0 mm 0.00 in0.0 mm
04:11 AM 76.8°F24.9°C 65.8°F18.8°C 69% 4.0 mph WNW6.4 kmh WNW 10.1 mph16.3 kmh 29.90 in1012.5 mb 0.00 in0.0 mm 0.00 in0.0 mm 0.00 in0.0 mm
04:16 AM 77.2°F25.1°C 65.8°F18.8°C 68% 4.0 mph WNW6.4 kmh WNW 6.9 mph11.1 kmh 29.90 in1012.5 mb 0.00 in0.0 mm 0.00 in0.0 mm 0.00 in0.0 mm
04:21 AM 77.4°F25.2°C 65.5°F18.6°C 67% 2.9 mph WNW4.7 kmh WNW 8.0 mph12.9 kmh 29.90 in1012.5 mb 0.00 in0.0 mm 0.00 in0.0 mm 0.00 in0.0 mm
04:26 AM 77.4°F25.2°C 65.5°F18.6°C 67% 2.9 mph WNW4.7 kmh WNW 8.1 mph13.0 kmh 29.90 in1012.5 mb 0.00 in0.0 mm 0.00 in0.0 mm 0.00 in0.0 mm
04:31 AM 77.4°F25.2°C 65.5°F18.6°C 67% 2.9 mph WNW4.7 kmh WNW 6.9 mph11.1 kmh 29.90 in1012.5 mb 0.00 in0.0 mm 0.00 in0.0 mm 0.00 in0.0 mm
04:36 AM 77.2°F25.1°C 65.3°F18.5°C 67% 2.9 mph W4.7 kmh W 6.0 mph9.7 kmh 29.90 in1012.5 mb 0.00 in0.0 mm 0.00 in0.0 mm 0.00 in0.0 mm
04:41 AM 76.8°F24.9°C 64.9°F18.3°C 67% 2.9 mph W4.7 kmh W 8.1 mph13.0 kmh 29.90 in1012.5 mb 0.00 in0.0 mm 0.00 in0.0 mm 0.00 in0.0 mm
04:46 AM 76.6°F24.8°C 65.3°F18.5°C 68% 4.0 mph NW6.4 kmh NW 8.9 mph14.3 kmh 29.90 in1012.5 mb 0.00 in0.0 mm 0.00 in0.0 mm 0.00 in0.0 mm
04:51 AM 76.3°F24.6°C 65.3°F18.5°C 69% 4.0 mph NW6.4 kmh NW 8.9 mph14.3 kmh 29.90 in1012.5 mb 0.00 in0.0 mm 0.00 in0.0 mm 0.00 in0.0 mm
04:56 AM 75.9°F24.4°C 64.9°F18.3°C 69% 4.0 mph NNW6.4 kmh NNW 8.9 mph14.3 kmh 29.90 in1012.5 mb 0.00 in0.0 mm 0.00 in0.0 mm 0.00 in0.0 mm
05:01 AM 76.1°F24.5°C 65.1°F18.4°C 69% 4.0 mph NW6.4 kmh NW 8.1 mph13.0 kmh 29.90 in1012.5 mb 0.00 in0.0 mm 0.00 in0.0 mm 0.00 in0.0 mm
05:06 AM 76.3°F24.6°C 65.3°F18.5°C 69% 4.0 mph W6.4 kmh W 10.1 mph16.3 kmh 29.90 in1012.5 mb 0.00 in0.0 mm 0.00 in0.0 mm 0.00 in0.0 mm
05:11 AM 76.5°F24.7°C 65.1°F18.4°C 68% 4.9 mph NW7.9 kmh NW 8.9 mph14.3 kmh 29.90 in1012.5 mb 0.00 in0.0 mm 0.00 in0.0 mm 0.00 in0.0 mm
05:16 AM 76.6°F24.8°C 65.3°F18.5°C 68% 4.9 mph NW7.9 kmh NW 8.9 mph14.3 kmh 29.90 in1012.5 mb 0.00 in0.0 mm 0.00 in0.0 mm 0.00 in0.0 mm
05:21 AM 76.6°F24.8°C 65.3°F18.5°C 68% 4.0 mph NW6.4 kmh NW 8.9 mph14.3 kmh 29.90 in1012.5 mb 0.00 in0.0 mm 0.00 in0.0 mm 0.00 in0.0 mm
05:26 AM 76.8°F24.9°C 64.9°F18.3°C 67% 4.0 mph NW6.4 kmh NW 11.0 mph17.7 kmh 29.90 in1012.5 mb 0.00 in0.0 mm 0.00 in0.0 mm 0.00 in0.0 mm
05:31 AM 76.5°F24.7°C 65.1°F18.4°C 68% 4.9 mph WNW7.9 kmh WNW 11.0 mph17.7 kmh 29.90 in1012.5 mb 0.00 in0.0 mm 0.00 in0.0 mm 0.00 in0.0 mm
05:36 AM 76.6°F24.8°C 65.3°F18.5°C 68% 6.0 mph WNW9.7 kmh WNW 12.1 mph19.5 kmh 29.90 in1012.5 mb 0.00 in0.0 mm 0.00 in0.0 mm 0.00 in0.0 mm
05:41 AM 76.8°F24.9°C 64.9°F18.3°C 67% 6.0 mph NW9.7 kmh NW 11.0 mph17.7 kmh 29.90 in1012.5 mb 0.00 in0.0 mm 0.00 in0.0 mm 0.00 in0.0 mm
05:46 AM 77.2°F25.1°C 64.9°F18.3°C 66% 4.9 mph WNW7.9 kmh WNW 8.9 mph14.3 kmh 29.90 in1012.5 mb 0.00 in0.0 mm 0.00 in0.0 mm 0.00 in0.0 mm
05:51 AM 77.5°F25.3°C 65.3°F18.5°C 66% 4.9 mph NW7.9 kmh NW 10.1 mph16.3 kmh 29.90 in1012.5 mb 0.00 in0.0 mm 0.00 in0.0 mm 0.00 in0.0 mm
05:56 AM 77.7°F25.4°C 65.5°F18.6°C 66% 4.9 mph N7.9 kmh N 8.9 mph14.3 kmh 29.91 in1012.9 mb 0.00 in0.0 mm 0.00 in0.0 mm 0.00 in0.0 mm
06:01 AM 77.4°F25.2°C 65.1°F18.4°C 66% 4.0 mph W6.4 kmh W 8.1 mph13.0 kmh 29.91 in1012.9 mb 0.00 in0.0 mm 0.00 in0.0 mm 0.00 in0.0 mm
06:06 AM 77.2°F25.1°C 65.3°F18.5°C 67% 4.0 mph NW6.4 kmh NW 8.1 mph13.0 kmh 29.91 in1012.9 mb 0.00 in0.0 mm 0.00 in0.0 mm 0.00 in0.0 mm
06:11 AM 77.2°F25.1°C 65.3°F18.5°C 67% 4.0 mph NW6.4 kmh NW 8.1 mph13.0 kmh 29.91 in1012.9 mb 0.00 in0.0 mm 0.00 in0.0 mm 0.00 in0.0 mm
06:16 AM 77.2°F25.1°C 65.3°F18.5°C 67% 4.0 mph NW6.4 kmh NW 8.1 mph13.0 kmh 29.91 in1012.9 mb 0.00 in0.0 mm 0.00 in0.0 mm 0.00 in0.0 mm
06:21 AM 76.8°F24.9°C 64.9°F18.3°C 67% 4.0 mph WNW6.4 kmh WNW 8.9 mph14.3 kmh 29.91 in1012.9 mb 0.00 in0.0 mm 0.00 in0.0 mm 0.00 in0.0 mm
06:26 AM 76.8°F24.9°C 65.5°F18.6°C 68% 4.0 mph W6.4 kmh W 8.9 mph14.3 kmh 29.92 in1013.2 mb 0.00 in0.0 mm 0.00 in0.0 mm 0.00 in0.0 mm
06:31 AM 76.6°F24.8°C 65.3°F18.5°C 68% 4.9 mph WNW7.9 kmh WNW 11.0 mph17.7 kmh 29.92 in1013.2 mb 0.00 in0.0 mm 0.00 in0.0 mm 0.00 in0.0 mm
06:36 AM 76.8°F24.9°C 65.5°F18.6°C 68% 4.9 mph NW7.9 kmh NW 11.0 mph17.7 kmh 29.92 in1013.2 mb 0.00 in0.0 mm 0.00 in0.0 mm 0.00 in0.0 mm
06:41 AM 77.2°F25.1°C 65.3°F18.5°C 67% 4.9 mph WNW7.9 kmh WNW 8.9 mph14.3 kmh 29.92 in1013.2 mb 0.00 in0.0 mm 0.00 in0.0 mm 0.00 in0.0 mm
06:46 AM 78.3°F25.7°C 65.5°F18.6°C 65% 4.0 mph NW6.4 kmh NW 8.9 mph14.3 kmh 29.92 in1013.2 mb 0.00 in0.0 mm 0.00 in0.0 mm 0.00 in0.0 mm
06:51 AM 79.2°F26.2°C 65.8°F18.8°C 64% 2.9 mph WNW4.7 kmh WNW 6.9 mph11.1 kmh 29.92 in1013.2 mb 0.00 in0.0 mm 0.00 in0.0 mm 0.00 in0.0 mm
06:56 AM 79.5°F26.4°C 65.8°F18.8°C 63% 2.9 mph NW4.7 kmh NW 8.9 mph14.3 kmh 29.92 in1013.2 mb 0.00 in0.0 mm 0.00 in0.0 mm 0.00 in0.0 mm
07:01 AM 79.9°F26.6°C 66.2°F19.0°C 63% 4.0 mph WNW6.4 kmh WNW 8.1 mph13.0 kmh 29.92 in1013.2 mb 0.00 in0.0 mm 0.00 in0.0 mm 0.00 in0.0 mm
07:06 AM 80.1°F26.7°C 66.4°F19.1°C 63% 4.0 mph WNW6.4 kmh WNW 8.1 mph13.0 kmh 29.92 in1013.2 mb 0.00 in0.0 mm 0.00 in0.0 mm 0.00 in0.0 mm
07:11 AM 80.4°F26.9°C 66.7°F19.3°C 63% 2.9 mph N4.7 kmh N 6.9 mph11.1 kmh 29.92 in1013.2 mb 0.00 in0.0 mm 0.00 in0.0 mm 0.00 in0.0 mm
07:16 AM 80.4°F26.9°C 66.7°F19.3°C 63% 2.9 mph N4.7 kmh N 8.1 mph13.0 kmh 29.92 in1013.2 mb 0.00 in0.0 mm 0.00 in0.0 mm 0.00 in0.0 mm
07:21 AM 80.8°F27.1°C 66.6°F19.2°C 62% 2.9 mph NW4.7 kmh NW 8.1 mph13.0 kmh 29.92 in1013.2 mb 0.00 in0.0 mm 0.00 in0.0 mm 0.00 in0.0 mm
07:26 AM 81.1°F27.3°C 66.4°F19.1°C 61% 2.9 mph W4.7 kmh W 9.0 mph14.5 kmh 29.92 in1013.2 mb 0.00 in0.0 mm 0.00 in0.0 mm 0.00 in0.0 mm
07:31 AM 81.7°F27.6°C 66.4°F19.1°C 60% 4.0 mph N6.4 kmh N 10.1 mph16.3 kmh 29.92 in1013.2 mb 0.00 in0.0 mm 0.00 in0.0 mm 0.00 in0.0 mm
07:36 AM 82.0°F27.8°C 66.4°F19.1°C 59% 4.0 mph NW6.4 kmh NW 11.0 mph17.7 kmh 29.92 in1013.2 mb 0.00 in0.0 mm 0.00 in0.0 mm 0.00 in0.0 mm
07:41 AM 82.6°F28.1°C 66.7°F19.3°C 59% 4.0 mph NNW6.4 kmh NNW 8.1 mph13.0 kmh 29.92 in1013.2 mb 0.00 in0.0 mm 0.00 in0.0 mm 0.00 in0.0 mm
07:46 AM 82.4°F28.0°C 66.6°F19.2°C 59% 4.0 mph NNW6.4 kmh NNW 10.0 mph16.1 kmh 29.92 in1013.2 mb 0.00 in0.0 mm 0.00 in0.0 mm 0.00 in0.0 mm
07:51 AM 82.2°F27.9°C 66.9°F19.4°C 60% 4.0 mph NW6.4 kmh NW 8.1 mph13.0 kmh 29.92 in1013.2 mb 0.00 in0.0 mm 0.00 in0.0 mm 0.00 in0.0 mm
07:56 AM 82.6°F28.1°C 67.3°F19.6°C 60% 4.0 mph 6.4 kmh 6.9 mph11.1 kmh 29.92 in1013.2 mb 0.00 in0.0 mm 0.00 in0.0 mm 0.00 in0.0 mm
08:01 AM 82.8°F28.2°C 67.5°F19.7°C 60% 4.0 mph NW6.4 kmh NW 8.9 mph14.3 kmh 29.92 in1013.2 mb 0.00 in0.0 mm 0.00 in0.0 mm 0.00 in0.0 mm
08:06 AM 83.1°F28.4°C 67.8°F19.9°C 60% 2.9 mph NW4.7 kmh NW 4.9 mph7.9 kmh 29.92 in1013.2 mb 0.00 in0.0 mm 0.00 in0.0 mm 0.00 in0.0 mm
08:11 AM 83.5°F28.6°C 68.2°F20.1°C 60% 2.9 mph WNW4.7 kmh WNW 6.0 mph9.7 kmh 29.92 in1013.2 mb 0.00 in0.0 mm 0.00 in0.0 mm 0.00 in0.0 mm
08:16 AM 83.5°F28.6°C 67.6°F19.8°C 59% 2.9 mph NW4.7 kmh NW 6.9 mph11.1 kmh 29.92 in1013.2 mb 0.00 in0.0 mm 0.00 in0.0 mm 0.00 in0.0 mm
08:21 AM 83.8°F28.8°C 68.5°F20.3°C 60% 2.9 mph N4.7 kmh N 6.0 mph9.7 kmh 29.92 in1013.2 mb 0.00 in0.0 mm 0.00 in0.0 mm 0.00 in0.0 mm
08:26 AM 84.0°F28.9°C 68.7°F20.4°C 60% 2.9 mph NW4.7 kmh NW 8.1 mph13.0 kmh 29.92 in1013.2 mb 0.00 in0.0 mm 0.00 in0.0 mm 0.00 in0.0 mm
08:31 AM 84.0°F28.9°C 68.7°F20.4°C 60% 2.9 mph N4.7 kmh N 8.1 mph13.0 kmh 29.93 in1013.5 mb 0.00 in0.0 mm 0.00 in0.0 mm 0.00 in0.0 mm
08:36 AM 84.6°F29.2°C 69.1°F20.6°C 60% 2.0 mph NNW3.2 kmh NNW 4.0 mph6.4 kmh 29.93 in1013.5 mb 0.00 in0.0 mm 0.00 in0.0 mm 0.00 in0.0 mm
08:41 AM 84.9°F29.4°C 68.9°F20.5°C 59% 2.0 mph NNE3.2 kmh NNE 4.9 mph7.9 kmh 29.93 in1013.5 mb 0.00 in0.0 mm 0.00 in0.0 mm 0.00 in0.0 mm
08:46 AM 85.1°F29.5°C 69.1°F20.6°C 59% 2.0 mph 3.2 kmh 4.9 mph7.9 kmh 29.93 in1013.5 mb 0.00 in0.0 mm 0.00 in0.0 mm 0.00 in0.0 mm
08:51 AM 85.3°F29.6°C 69.8°F21.0°C 60% 2.9 mph NNE4.7 kmh NNE 4.9 mph7.9 kmh 29.93 in1013.5 mb 0.00 in0.0 mm 0.00 in0.0 mm 0.00 in0.0 mm
08:56 AM 84.9°F29.4°C 70.0°F21.1°C 61% 2.9 mph ENE4.7 kmh ENE 6.9 mph11.1 kmh 29.93 in1013.5 mb 0.00 in0.0 mm 0.00 in0.0 mm 0.00 in0.0 mm
09:01 AM 84.7°F29.3°C 70.7°F21.5°C 63% 4.0 mph NE6.4 kmh NE 8.9 mph14.3 kmh 29.93 in1013.5 mb 0.00 in0.0 mm 0.00 in0.0 mm 0.00 in0.0 mm
09:06 AM 84.7°F29.3°C 70.3°F21.3°C 62% 4.9 mph NNE7.9 kmh NNE 10.1 mph16.3 kmh 29.93 in1013.5 mb 0.00 in0.0 mm 0.00 in0.0 mm 0.00 in0.0 mm
09:11 AM 84.6°F29.2°C 70.5°F21.4°C 63% 4.9 mph NE7.9 kmh NE 8.1 mph13.0 kmh 29.93 in1013.5 mb 0.00 in0.0 mm 0.00 in0.0 mm 0.00 in0.0 mm
09:16 AM 84.7°F29.3°C 71.2°F21.8°C 64% 4.0 mph NE6.4 kmh NE 6.9 mph11.1 kmh 29.93 in1013.5 mb 0.00 in0.0 mm 0.00 in0.0 mm 0.00 in0.0 mm
09:21 AM 84.6°F29.2°C 72.0°F22.2°C 66% 4.9 mph NNE7.9 kmh NNE 10.1 mph16.3 kmh 29.93 in1013.5 mb 0.00 in0.0 mm 0.00 in0.0 mm 0.00 in0.0 mm
09:26 AM 84.4°F29.1°C 72.1°F22.3°C 67% 6.0 mph NE9.7 kmh NE 10.1 mph16.3 kmh 29.93 in1013.5 mb 0.00 in0.0 mm 0.00 in0.0 mm 0.00 in0.0 mm
09:31 AM 84.7°F29.3°C 72.5°F22.5°C 67% 4.9 mph NE7.9 kmh NE 8.9 mph14.3 kmh 29.93 in1013.5 mb 0.00 in0.0 mm 0.00 in0.0 mm 0.00 in0.0 mm
09:36 AM 84.7°F29.3°C 72.5°F22.5°C 67% 4.9 mph NE7.9 kmh NE 10.1 mph16.3 kmh 29.93 in1013.5 mb 0.00 in0.0 mm 0.00 in0.0 mm 0.00 in0.0 mm
09:41 AM 84.6°F29.2°C 72.3°F22.4°C 67% 6.0 mph NE9.7 kmh NE 11.0 mph17.7 kmh 29.93 in1013.5 mb 0.00 in0.0 mm 0.00 in0.0 mm 0.00 in0.0 mm
09:46 AM 84.6°F29.2°C 72.3°F22.4°C 67% 6.9 mph NE11.1 kmh NE 10.1 mph16.3 kmh 29.93 in1013.5 mb 0.00 in0.0 mm 0.00 in0.0 mm 0.00 in0.0 mm
09:51 AM 84.9°F29.4°C 72.7°F22.6°C 67% 6.0 mph NNE9.7 kmh NNE 10.1 mph16.3 kmh 29.93 in1013.5 mb 0.00 in0.0 mm 0.00 in0.0 mm 0.00 in0.0 mm
09:56 AM 84.9°F29.4°C 73.2°F22.9°C 68% 6.0 mph NE9.7 kmh NE 11.0 mph17.7 kmh 29.93 in1013.5 mb 0.00 in0.0 mm 0.00 in0.0 mm 0.00 in0.0 mm
10:01 AM 84.9°F29.4°C 73.2°F22.9°C 68% 6.9 mph NE11.1 kmh NE 11.0 mph17.7 kmh 29.93 in1013.5 mb 0.00 in0.0 mm 0.00 in0.0 mm 0.00 in0.0 mm
10:06 AM 84.7°F29.3°C 73.0°F22.8°C 68% 6.9 mph NE11.1 kmh NE 11.0 mph17.7 kmh 29.93 in1013.5 mb 0.00 in0.0 mm 0.00 in0.0 mm 0.00 in0.0 mm
10:11 AM 84.6°F29.2°C 73.2°F22.9°C 69% 8.1 mph NE13.0 kmh NE 12.1 mph19.5 kmh 29.93 in1013.5 mb 0.00 in0.0 mm 0.00 in0.0 mm 0.00 in0.0 mm
10:16 AM 84.4°F29.1°C 73.0°F22.8°C 69% 8.1 mph N13.0 kmh N 12.1 mph19.5 kmh 29.93 in1013.5 mb 0.00 in0.0 mm 0.00 in0.0 mm 0.00 in0.0 mm
10:21 AM 84.4°F29.1°C 73.0°F22.8°C 69% 8.1 mph NE13.0 kmh NE 12.1 mph19.5 kmh 29.93 in1013.5 mb 0.00 in0.0 mm 0.00 in0.0 mm 0.00 in0.0 mm
10:26 AM 84.4°F29.1°C 73.0°F22.8°C 69% 6.9 mph ENE11.1 kmh ENE 11.0 mph17.7 kmh 29.93 in1013.5 mb 0.00 in0.0 mm 0.00 in0.0 mm 0.00 in0.0 mm
10:31 AM 84.6°F29.2°C 73.2°F22.9°C 69% 6.9 mph NE11.1 kmh NE 12.1 mph19.5 kmh 29.93 in1013.5 mb 0.00 in0.0 mm 0.00 in0.0 mm 0.00 in0.0 mm
10:36 AM 84.6°F29.2°C 73.2°F22.9°C 69% 6.9 mph NE11.1 kmh NE 12.1 mph19.5 kmh 29.93 in1013.5 mb 0.00 in0.0 mm 0.00 in0.0 mm 0.00 in0.0 mm
10:41 AM 84.7°F29.3°C 73.9°F23.3°C 70% 8.1 mph N13.0 kmh N 12.1 mph19.5 kmh 29.93 in1013.5 mb 0.00 in0.0 mm 0.00 in0.0 mm 0.00 in0.0 mm
10:46 AM 84.7°F29.3°C 73.0°F22.8°C 68% 8.1 mph NE13.0 kmh NE 12.1 mph19.5 kmh 29.93 in1013.5 mb 0.00 in0.0 mm 0.00 in0.0 mm 0.00 in0.0 mm
10:51 AM 84.7°F29.3°C 73.0°F22.8°C 68% 6.9 mph NE11.1 kmh NE 12.1 mph19.5 kmh 29.93 in1013.5 mb 0.00 in0.0 mm 0.00 in0.0 mm 0.00 in0.0 mm
10:56 AM 84.9°F29.4°C 72.7°F22.6°C 67% 6.9 mph NE11.1 kmh NE 11.0 mph17.7 kmh 29.93 in1013.5 mb 0.00 in0.0 mm 0.00 in0.0 mm 0.00 in0.0 mm
11:01 AM 84.7°F29.3°C 73.0°F22.8°C 68% 6.9 mph NE11.1 kmh NE 13.0 mph20.9 kmh 29.93 in1013.5 mb 0.00 in0.0 mm 0.00 in0.0 mm 0.00 in0.0 mm
11:06 AM 84.9°F29.4°C 73.6°F23.1°C 69% 8.1 mph NE13.0 kmh NE 13.0 mph20.9 kmh 29.93 in1013.5 mb 0.00 in0.0 mm 0.00 in0.0 mm 0.00 in0.0 mm
11:11 AM 85.3°F29.6°C 74.3°F23.5°C 70% 8.1 mph NE13.0 kmh NE 13.0 mph20.9 kmh 29.93 in1013.5 mb 0.00 in0.0 mm 0.00 in0.0 mm 0.00 in0.0 mm
11:16 AM 84.7°F29.3°C 73.4°F23.0°C 69% 8.1 mph ENE13.0 kmh ENE 14.1 mph22.7 kmh 29.93 in1013.5 mb 0.00 in0.0 mm 0.00 in0.0 mm 0.00 in0.0 mm
11:21 AM 84.7°F29.3°C 73.9°F23.3°C 70% 8.9 mph NE14.3 kmh NE 15.0 mph24.1 kmh 29.93 in1013.5 mb 0.00 in0.0 mm 0.00 in0.0 mm 0.00 in0.0 mm
11:26 AM 84.7°F29.3°C 73.9°F23.3°C 70% 8.9 mph NE14.3 kmh NE 15.0 mph24.1 kmh 29.93 in1013.5 mb 0.00 in0.0 mm 0.00 in0.0 mm 0.00 in0.0 mm
11:31 AM 84.7°F29.3°C 73.9°F23.3°C 70% 8.9 mph NE14.3 kmh NE 15.0 mph24.1 kmh 29.93 in1013.5 mb 0.00 in0.0 mm 0.00 in0.0 mm 0.00 in0.0 mm
11:36 AM 84.7°F29.3°C 73.9°F23.3°C 70% 8.9 mph ENE14.3 kmh ENE 14.1 mph22.7 kmh 29.93 in1013.5 mb 0.00 in0.0 mm 0.00 in0.0 mm 0.00 in0.0 mm
11:41 AM 84.7°F29.3°C 73.9°F23.3°C 70% 8.1 mph ENE13.0 kmh ENE 15.0 mph24.1 kmh 29.93 in1013.5 mb 0.00 in0.0 mm 0.00 in0.0 mm 0.00 in0.0 mm
11:46 AM 84.7°F29.3°C 73.9°F23.3°C 70% 8.1 mph NNE13.0 kmh NNE 13.0 mph20.9 kmh 29.93 in1013.5 mb 0.00 in0.0 mm 0.00 in0.0 mm 0.00 in0.0 mm
11:51 AM 84.7°F29.3°C 73.9°F23.3°C 70% 8.9 mph NE14.3 kmh NE 14.1 mph22.7 kmh 29.93 in1013.5 mb 0.00 in0.0 mm 0.00 in0.0 mm 0.00 in0.0 mm
11:56 AM 84.7°F29.3°C 74.3°F23.5°C 71% 8.9 mph NE14.3 kmh NE 14.1 mph22.7 kmh 29.93 in1013.5 mb 0.00 in0.0 mm 0.00 in0.0 mm 0.00 in0.0 mm
12:01 PM 84.7°F29.3°C 73.9°F23.3°C 70% 8.9 mph ENE14.3 kmh ENE 14.1 mph22.7 kmh 29.93 in1013.5 mb 0.00 in0.0 mm 0.00 in0.0 mm 0.00 in0.0 mm
12:06 PM 84.4°F29.1°C 73.6°F23.1°C 70% 8.9 mph NE14.3 kmh NE 14.1 mph22.7 kmh 29.93 in1013.5 mb 0.00 in0.0 mm 0.00 in0.0 mm 0.00 in0.0 mm
12:11 PM 84.6°F29.2°C 74.1°F23.4°C 71% 8.9 mph N14.3 kmh N 13.0 mph20.9 kmh 29.93 in1013.5 mb 0.00 in0.0 mm 0.00 in0.0 mm 0.00 in0.0 mm
12:16 PM 84.4°F29.1°C 73.0°F22.8°C 69% 8.1 mph ENE13.0 kmh ENE 15.0 mph24.1 kmh 29.93 in1013.5 mb 0.00 in0.0 mm 0.00 in0.0 mm 0.00 in0.0 mm
12:21 PM 84.6°F29.2°C 73.8°F23.2°C 70% 8.9 mph NE14.3 kmh NE 13.0 mph20.9 kmh 29.93 in1013.5 mb 0.00 in0.0 mm 0.00 in0.0 mm 0.00 in0.0 mm
12:26 PM 84.6°F29.2°C 73.8°F23.2°C 70% 8.9 mph N14.3 kmh N 15.0 mph24.1 kmh 29.93 in1013.5 mb 0.00 in0.0 mm 0.00 in0.0 mm 0.00 in0.0 mm
12:31 PM 84.7°F29.3°C 73.9°F23.3°C 70% 8.1 mph NNE13.0 kmh NNE 12.1 mph19.5 kmh 29.93 in1013.5 mb 0.00 in0.0 mm 0.00 in0.0 mm 0.00 in0.0 mm
12:36 PM 84.6°F29.2°C 73.2°F22.9°C 69% 8.1 mph N13.0 kmh N 13.0 mph20.9 kmh 29.93 in1013.5 mb 0.00 in0.0 mm 0.00 in0.0 mm 0.00 in0.0 mm
12:41 PM 84.7°F29.3°C 73.4°F23.0°C 69% 8.1 mph NE13.0 kmh NE 11.0 mph17.7 kmh 29.93 in1013.5 mb 0.00 in0.0 mm 0.00 in0.0 mm 0.00 in0.0 mm
12:46 PM 84.7°F29.3°C 73.0°F22.8°C 68% 8.1 mph N13.0 kmh N 12.1 mph19.5 kmh 29.93 in1013.5 mb 0.00 in0.0 mm 0.00 in0.0 mm 0.00 in0.0 mm
12:51 PM 84.6°F29.2°C 72.9°F22.7°C 68% 8.1 mph NE13.0 kmh NE 13.0 mph20.9 kmh 29.93 in1013.5 mb 0.00 in0.0 mm 0.00 in0.0 mm 0.00 in0.0 mm
12:56 PM 84.4°F29.1°C 72.7°F22.6°C 68% 8.9 mph NE14.3 kmh NE 13.0 mph20.9 kmh 29.93 in1013.5 mb 0.00 in0.0 mm 0.00 in0.0 mm 0.00 in0.0 mm
01:01 PM 84.6°F29.2°C 72.9°F22.7°C 68% 8.1 mph NE13.0 kmh NE 12.1 mph19.5 kmh 29.93 in1013.5 mb 0.00 in0.0 mm 0.00 in0.0 mm 0.00 in0.0 mm
01:06 PM 84.9°F29.4°C 72.7°F22.6°C 67% 8.1 mph NE13.0 kmh NE 12.1 mph19.5 kmh 29.93 in1013.5 mb 0.00 in0.0 mm 0.00 in0.0 mm 0.00 in0.0 mm
01:11 PM 84.9°F29.4°C 72.3°F22.4°C 66% 8.1 mph N13.0 kmh N 13.0 mph20.9 kmh 29.93 in1013.5 mb 0.00 in0.0 mm 0.00 in0.0 mm 0.00 in0.0 mm
01:16 PM 85.3°F29.6°C 72.7°F22.6°C 66% 8.1 mph NE13.0 kmh NE 11.0 mph17.7 kmh 29.93 in1013.5 mb 0.00 in0.0 mm 0.00 in0.0 mm 0.00 in0.0 mm
01:21 PM 84.9°F29.4°C 71.4°F21.9°C 64% 8.1 mph NNE13.0 kmh NNE 13.0 mph20.9 kmh 29.93 in1013.5 mb 0.00 in0.0 mm 0.00 in0.0 mm 0.00 in0.0 mm
01:26 PM 84.9°F29.4°C 72.7°F22.6°C 67% 8.1 mph NE13.0 kmh NE 14.1 mph22.7 kmh 29.93 in1013.5 mb 0.00 in0.0 mm 0.00 in0.0 mm 0.00 in0.0 mm
01:31 PM 84.9°F29.4°C 72.3°F22.4°C 66% 8.1 mph NNE13.0 kmh NNE 14.1 mph22.7 kmh 29.93 in1013.5 mb 0.00 in0.0 mm 0.00 in0.0 mm 0.00 in0.0 mm
01:36 PM 85.3°F29.6°C 73.0°F22.8°C 67% 8.1 mph NE13.0 kmh NE 12.1 mph19.5 kmh 29.93 in1013.5 mb 0.00 in0.0 mm 0.00 in0.0 mm 0.00 in0.0 mm
01:41 PM 84.7°F29.3°C 73.4°F23.0°C 69% 8.1 mph NE13.0 kmh NE 13.0 mph20.9 kmh 29.92 in1013.2 mb 0.00 in0.0 mm 0.00 in0.0 mm 0.00 in0.0 mm
01:46 PM 84.7°F29.3°C 73.4°F23.0°C 69% 8.9 mph NE14.3 kmh NE 12.1 mph19.5 kmh 29.93 in1013.5 mb 0.00 in0.0 mm 0.00 in0.0 mm 0.00 in0.0 mm
01:51 PM 84.7°F29.3°C 73.4°F23.0°C 69% 8.1 mph NE13.0 kmh NE 13.0 mph20.9 kmh 29.92 in1013.2 mb 0.00 in0.0 mm 0.00 in0.0 mm 0.00 in0.0 mm
01:56 PM 84.7°F29.3°C 73.4°F23.0°C 69% 8.1 mph NNE13.0 kmh NNE 13.0 mph20.9 kmh 29.93 in1013.5 mb 0.00 in0.0 mm 0.00 in0.0 mm 0.00 in0.0 mm
02:01 PM 84.9°F29.4°C 72.7°F22.6°C 67% 8.1 mph NNE13.0 kmh NNE 13.0 mph20.9 kmh 29.92 in1013.2 mb 0.00 in0.0 mm 0.00 in0.0 mm 0.00 in0.0 mm
02:06 PM 84.9°F29.4°C 73.2°F22.9°C 68% 6.9 mph N11.1 kmh N 12.1 mph19.5 kmh 29.92 in1013.2 mb 0.00 in0.0 mm 0.00 in0.0 mm 0.00 in0.0 mm
02:11 PM 84.9°F29.4°C 72.7°F22.6°C 67% 6.9 mph N11.1 kmh N 11.0 mph17.7 kmh 29.92 in1013.2 mb 0.00 in0.0 mm 0.00 in0.0 mm 0.00 in0.0 mm
02:16 PM 84.7°F29.3°C 72.5°F22.5°C 67% 6.9 mph N11.1 kmh N 12.1 mph19.5 kmh 29.92 in1013.2 mb 0.00 in0.0 mm 0.00 in0.0 mm 0.00 in0.0 mm
02:21 PM 84.9°F29.4°C 72.7°F22.6°C 67% 6.9 mph NE11.1 kmh NE 11.0 mph17.7 kmh 29.92 in1013.2 mb 0.00 in0.0 mm 0.00 in0.0 mm 0.00 in0.0 mm
02:26 PM 84.9°F29.4°C 72.3°F22.4°C 66% 6.0 mph ENE9.7 kmh ENE 10.1 mph16.3 kmh 29.92 in1013.2 mb 0.00 in0.0 mm 0.00 in0.0 mm 0.00 in0.0 mm
02:31 PM 85.3°F29.6°C 72.7°F22.6°C 66% 6.0 mph ENE9.7 kmh ENE 12.1 mph19.5 kmh 29.92 in1013.2 mb 0.00 in0.0 mm 0.00 in0.0 mm 0.00 in0.0 mm
02:36 PM 85.3°F29.6°C 73.0°F22.8°C 67% 6.0 mph NE9.7 kmh NE 12.1 mph19.5 kmh 29.92 in1013.2 mb 0.00 in0.0 mm 0.00 in0.0 mm 0.00 in0.0 mm
02:41 PM 84.9°F29.4°C 71.8°F22.1°C 65% 6.9 mph NE11.1 kmh NE 13.0 mph20.9 kmh 29.92 in1013.2 mb 0.00 in0.0 mm 0.00 in0.0 mm 0.00 in0.0 mm
02:46 PM 85.1°F29.5°C 72.0°F22.2°C 65% 6.0 mph NNE9.7 kmh NNE 10.1 mph16.3 kmh 29.92 in1013.2 mb 0.00 in0.0 mm 0.00 in0.0 mm 0.00 in0.0 mm
02:51 PM 84.9°F29.4°C 71.8°F22.1°C 65% 6.0 mph ENE9.7 kmh ENE 11.0 mph17.7 kmh 29.92 in1013.2 mb 0.00 in0.0 mm 0.00 in0.0 mm 0.00 in0.0 mm
02:56 PM 84.9°F29.4°C 71.8°F22.1°C 65% 6.0 mph E9.7 kmh E 11.0 mph17.7 kmh 29.92 in1013.2 mb 0.00 in0.0 mm 0.00 in0.0 mm 0.00 in0.0 mm
03:01 PM 85.3°F29.6°C 72.1°F22.3°C 65% 6.0 mph NE9.7 kmh NE 10.1 mph16.3 kmh 29.92 in1013.2 mb 0.00 in0.0 mm 0.00 in0.0 mm 0.00 in0.0 mm
03:06 PM 84.9°F29.4°C 71.8°F22.1°C 65% 6.0 mph NE9.7 kmh NE 11.0 mph17.7 kmh 29.91 in1012.9 mb 0.00 in0.0 mm 0.00 in0.0 mm 0.00 in0.0 mm
03:11 PM 84.7°F29.3°C 71.6°F22.0°C 65% 6.0 mph ENE9.7 kmh ENE 10.1 mph16.3 kmh 29.91 in1012.9 mb 0.00 in0.0 mm 0.00 in0.0 mm 0.00 in0.0 mm
03:16 PM 84.9°F29.4°C 71.8°F22.1°C 65% 6.0 mph NNE9.7 kmh NNE 10.1 mph16.3 kmh 29.91 in1012.9 mb 0.00 in0.0 mm 0.00 in0.0 mm 0.00 in0.0 mm
03:21 PM 84.9°F29.4°C 72.7°F22.6°C 67% 6.0 mph NE9.7 kmh NE 8.9 mph14.3 kmh 29.91 in1012.9 mb 0.00 in0.0 mm 0.00 in0.0 mm 0.00 in0.0 mm
03:26 PM 84.7°F29.3°C 72.5°F22.5°C 67% 6.0 mph N9.7 kmh N 8.9 mph14.3 kmh 29.91 in1012.9 mb 0.00 in0.0 mm 0.00 in0.0 mm 0.00 in0.0 mm
03:31 PM 84.9°F29.4°C 73.2°F22.9°C 68% 4.9 mph N7.9 kmh N 8.9 mph14.3 kmh 29.91 in1012.9 mb 0.00 in0.0 mm 0.00 in0.0 mm 0.00 in0.0 mm
03:36 PM 84.9°F29.4°C 73.2°F22.9°C 68% 4.0 mph E6.4 kmh E 8.1 mph13.0 kmh 29.91 in1012.9 mb 0.00 in0.0 mm 0.00 in0.0 mm 0.00 in0.0 mm
03:41 PM 84.6°F29.2°C 72.3°F22.4°C 67% 4.0 mph NE6.4 kmh NE 6.9 mph11.1 kmh 29.91 in1012.9 mb 0.00 in0.0 mm 0.00 in0.0 mm 0.00 in0.0 mm
03:46 PM 84.6°F29.2°C 73.2°F22.9°C 69% 4.0 mph E6.4 kmh E 6.0 mph9.7 kmh 29.90 in1012.5 mb 0.00 in0.0 mm 0.00 in0.0 mm 0.00 in0.0 mm
03:51 PM 84.4°F29.1°C 72.1°F22.3°C 67% 4.0 mph E6.4 kmh E 6.9 mph11.1 kmh 29.90 in1012.5 mb 0.00 in0.0 mm 0.00 in0.0 mm 0.00 in0.0 mm
03:56 PM 84.6°F29.2°C 73.2°F22.9°C 69% 4.0 mph ENE6.4 kmh ENE 6.9 mph11.1 kmh 29.90 in1012.5 mb 0.00 in0.0 mm 0.00 in0.0 mm 0.00 in0.0 mm
04:01 PM 84.4°F29.1°C 72.7°F22.6°C 68% 4.0 mph ENE6.4 kmh ENE 6.0 mph9.7 kmh 29.90 in1012.5 mb 0.00 in0.0 mm 0.00 in0.0 mm 0.00 in0.0 mm
04:06 PM 84.4°F29.1°C 72.7°F22.6°C 68% 4.0 mph E6.4 kmh E 6.0 mph9.7 kmh 29.90 in1012.5 mb 0.00 in0.0 mm 0.00 in0.0 mm 0.00 in0.0 mm
04:11 PM 84.6°F29.2°C 72.9°F22.7°C 68% 2.9 mph ENE4.7 kmh ENE 6.9 mph11.1 kmh 29.90 in1012.5 mb 0.00 in0.0 mm 0.00 in0.0 mm 0.00 in0.0 mm
04:16 PM 84.4°F29.1°C 72.7°F22.6°C 68% 2.9 mph NE4.7 kmh NE 6.9 mph11.1 kmh 29.90 in1012.5 mb 0.00 in0.0 mm 0.00 in0.0 mm 0.00 in0.0 mm
04:21 PM 84.0°F28.9°C 72.3°F22.4°C 68% 4.0 mph ENE6.4 kmh ENE 6.0 mph9.7 kmh 29.90 in1012.5 mb 0.00 in0.0 mm 0.00 in0.0 mm 0.00 in0.0 mm
04:26 PM 84.0°F28.9°C 72.7°F22.6°C 69% 4.0 mph NE6.4 kmh NE 6.9 mph11.1 kmh 29.90 in1012.5 mb 0.00 in0.0 mm 0.00 in0.0 mm 0.00 in0.0 mm
04:31 PM 84.2°F29.0°C 73.4°F23.0°C 70% 4.0 mph E6.4 kmh E 6.0 mph9.7 kmh 29.90 in1012.5 mb 0.00 in0.0 mm 0.00 in0.0 mm 0.00 in0.0 mm
04:36 PM 84.4°F29.1°C 73.6°F23.1°C 70% 2.9 mph E4.7 kmh E 6.9 mph11.1 kmh 29.90 in1012.5 mb 0.00 in0.0 mm 0.00 in0.0 mm 0.00 in0.0 mm
04:41 PM 84.0°F28.9°C 73.2°F22.9°C 70% 2.9 mph ENE4.7 kmh ENE 6.0 mph9.7 kmh 29.90 in1012.5 mb 0.00 in0.0 mm 0.00 in0.0 mm 0.00 in0.0 mm
04:46 PM 84.0°F28.9°C 73.2°F22.9°C 70% 2.9 mph NE4.7 kmh NE 4.9 mph7.9 kmh 29.90 in1012.5 mb 0.00 in0.0 mm 0.00 in0.0 mm 0.00 in0.0 mm
04:51 PM 83.7°F28.7°C 72.9°F22.7°C 70% 2.9 mph E4.7 kmh E 4.0 mph6.4 kmh 29.90 in1012.5 mb 0.00 in0.0 mm 0.00 in0.0 mm 0.00 in0.0 mm
04:56 PM 83.8°F28.8°C 73.0°F22.8°C 70% 2.0 mph E3.2 kmh E 4.0 mph6.4 kmh 29.90 in1012.5 mb 0.00 in0.0 mm 0.00 in0.0 mm 0.00 in0.0 mm
05:01 PM 83.7°F28.7°C 72.9°F22.7°C 70% 2.0 mph E3.2 kmh E 4.0 mph6.4 kmh 29.89 in1012.2 mb 0.00 in0.0 mm 0.00 in0.0 mm 0.00 in0.0 mm
05:06 PM 83.8°F28.8°C 73.0°F22.8°C 70% 2.0 mph E3.2 kmh E 2.9 mph4.7 kmh 29.90 in1012.5 mb 0.00 in0.0 mm 0.00 in0.0 mm 0.00 in0.0 mm
05:12 PM 84.2°F29.0°C 73.4°F23.0°C 70% 2.0 mph E3.2 kmh E 4.0 mph6.4 kmh 29.90 in1012.5 mb 0.00 in0.0 mm 0.00 in0.0 mm 0.00 in0.0 mm
05:17 PM 84.0°F28.9°C 73.2°F22.9°C 70% 2.0 mph E3.2 kmh E 4.0 mph6.4 kmh 29.90 in1012.5 mb 0.00 in0.0 mm 0.00 in0.0 mm 0.00 in0.0 mm
05:22 PM 83.8°F28.8°C 73.4°F23.0°C 71% 2.0 mph E3.2 kmh E 4.0 mph6.4 kmh 29.90 in1012.5 mb 0.00 in0.0 mm 0.00 in0.0 mm 0.00 in0.0 mm
05:27 PM 83.7°F28.7°C 73.2°F22.9°C 71% 2.0 mph E3.2 kmh E 6.0 mph9.7 kmh 29.90 in1012.5 mb 0.00 in0.0 mm 0.00 in0.0 mm 0.00 in0.0 mm
05:32 PM 83.8°F28.8°C 73.4°F23.0°C 71% 2.0 mph E3.2 kmh E 6.0 mph9.7 kmh 29.90 in1012.5 mb 0.00 in0.0 mm 0.00 in0.0 mm 0.00 in0.0 mm
05:37 PM 83.8°F28.8°C 73.4°F23.0°C 71% 2.0 mph E3.2 kmh E 2.9 mph4.7 kmh 29.90 in1012.5 mb 0.00 in0.0 mm 0.00 in0.0 mm 0.00 in0.0 mm
05:42 PM 83.8°F28.8°C 73.4°F23.0°C 71% 2.0 mph E3.2 kmh E 4.0 mph6.4 kmh 29.90 in1012.5 mb 0.00 in0.0 mm 0.00 in0.0 mm 0.00 in0.0 mm
05:47 PM 83.8°F28.8°C 73.0°F22.8°C 70% 2.0 mph E3.2 kmh E 2.9 mph4.7 kmh 29.90 in1012.5 mb 0.00 in0.0 mm 0.00 in0.0 mm 0.00 in0.0 mm
05:52 PM 83.8°F28.8°C 73.4°F23.0°C 71% 2.0 mph E3.2 kmh E 2.9 mph4.7 kmh 29.90 in1012.5 mb 0.00 in0.0 mm 0.00 in0.0 mm 0.00 in0.0 mm
05:57 PM 83.8°F28.8°C 73.4°F23.0°C 71% 2.0 mph E3.2 kmh E 2.9 mph4.7 kmh 29.90 in1012.5 mb 0.00 in0.0 mm 0.00 in0.0 mm 0.00 in0.0 mm
06:02 PM 83.7°F28.7°C 72.9°F22.7°C 70% 0.9 mph E1.4 kmh E 2.9 mph4.7 kmh 29.90 in1012.5 mb 0.00 in0.0 mm 0.00 in0.0 mm 0.00 in0.0 mm
06:07 PM 83.5°F28.6°C 72.7°F22.6°C 70% 0.9 mph E1.4 kmh E 2.9 mph4.7 kmh 29.90 in1012.5 mb 0.00 in0.0 mm 0.00 in0.0 mm 0.00 in0.0 mm
06:12 PM 83.5°F28.6°C 72.7°F22.6°C 70% 0.9 mph E1.4 kmh E 2.9 mph4.7 kmh 29.90 in1012.5 mb 0.00 in0.0 mm 0.00 in0.0 mm 0.00 in0.0 mm
06:17 PM 83.7°F28.7°C 73.2°F22.9°C 71% 2.0 mph E3.2 kmh E 2.9 mph4.7 kmh 29.90 in1012.5 mb 0.00 in0.0 mm 0.00 in0.0 mm 0.00 in0.0 mm
06:22 PM 83.5°F28.6°C 73.0°F22.8°C 71% 2.0 mph E3.2 kmh E 2.9 mph4.7 kmh 29.90 in1012.5 mb 0.00 in0.0 mm 0.00 in0.0 mm 0.00 in0.0 mm
06:27 PM 83.3°F28.5°C 72.9°F22.7°C 71% 0.9 mph E1.4 kmh E 2.9 mph4.7 kmh 29.90 in1012.5 mb 0.00 in0.0 mm 0.00 in0.0 mm 0.00 in0.0 mm
06:32 PM 83.1°F28.4°C 73.2°F22.9°C 72% 2.0 mph E3.2 kmh E 2.9 mph4.7 kmh 29.91 in1012.9 mb 0.00 in0.0 mm 0.00 in0.0 mm 0.00 in0.0 mm
06:37 PM 82.9°F28.3°C 73.0°F22.8°C 72% 2.0 mph E3.2 kmh E 2.9 mph4.7 kmh 29.91 in1012.9 mb 0.00 in0.0 mm 0.00 in0.0 mm 0.00 in0.0 mm
06:42 PM 82.9°F28.3°C 73.0°F22.8°C 72% 0.9 mph E1.4 kmh E 2.0 mph3.2 kmh 29.91 in1012.9 mb 0.00 in0.0 mm 0.00 in0.0 mm 0.00 in0.0 mm
06:47 PM 82.9°F28.3°C 73.0°F22.8°C 72% 0.9 mph E1.4 kmh E 2.0 mph3.2 kmh 29.90 in1012.5 mb 0.00 in0.0 mm 0.00 in0.0 mm 0.00 in0.0 mm
06:52 PM 82.8°F28.2°C 72.9°F22.7°C 72% Calm Calm 0.9 mph1.4 kmh 29.91 in1012.9 mb 0.00 in0.0 mm 0.00 in0.0 mm 0.00 in0.0 mm
06:57 PM 82.8°F28.2°C 72.3°F22.4°C 71% Calm Calm 2.0 mph3.2 kmh 29.91 in1012.9 mb 0.00 in0.0 mm 0.00 in0.0 mm 0.00 in0.0 mm
07:02 PM 82.9°F28.3°C 72.5°F22.5°C 71% Calm Calm 2.0 mph3.2 kmh 29.91 in1012.9 mb 0.00 in0.0 mm 0.00 in0.0 mm 0.00 in0.0 mm
07:07 PM 82.9°F28.3°C 73.4°F23.0°C 73% 0.9 mph E1.4 kmh E 4.0 mph6.4 kmh 29.91 in1012.9 mb 0.00 in0.0 mm 0.00 in0.0 mm 0.00 in0.0 mm
07:12 PM 82.6°F28.1°C 73.0°F22.8°C 73% 2.9 mph E4.7 kmh E 4.0 mph6.4 kmh 29.91 in1012.9 mb 0.00 in0.0 mm 0.00 in0.0 mm 0.00 in0.0 mm
07:17 PM 82.0°F27.8°C 72.5°F22.5°C 73% 2.0 mph E3.2 kmh E 4.0 mph6.4 kmh 29.91 in1012.9 mb 0.00 in0.0 mm 0.00 in0.0 mm 0.00 in0.0 mm
07:22 PM 82.0°F27.8°C 72.9°F22.7°C 74% 2.0 mph E3.2 kmh E 4.0 mph6.4 kmh 29.91 in1012.9 mb 0.00 in0.0 mm 0.00 in0.0 mm 0.00 in0.0 mm
07:27 PM 82.0°F27.8°C 72.9°F22.7°C 74% 2.0 mph E3.2 kmh E 4.0 mph6.4 kmh 29.91 in1012.9 mb 0.00 in0.0 mm 0.00 in0.0 mm 0.00 in0.0 mm
07:32 PM 82.0°F27.8°C 73.4°F23.0°C 75% 2.0 mph E3.2 kmh E 2.9 mph4.7 kmh 29.91 in1012.9 mb 0.00 in0.0 mm 0.00 in0.0 mm 0.00 in0.0 mm
07:37 PM 82.0°F27.8°C 73.4°F23.0°C 75% 2.0 mph E3.2 kmh E 2.9 mph4.7 kmh 29.91 in1012.9 mb 0.00 in0.0 mm 0.00 in0.0 mm 0.00 in0.0 mm
07:42 PM 81.9°F27.7°C 73.2°F22.9°C 75% 2.0 mph E3.2 kmh E 2.9 mph4.7 kmh 29.91 in1012.9 mb 0.00 in0.0 mm 0.00 in0.0 mm 0.00 in0.0 mm
07:47 PM 81.7°F27.6°C 73.0°F22.8°C 75% 2.0 mph E3.2 kmh E 2.9 mph4.7 kmh 29.92 in1013.2 mb 0.00 in0.0 mm 0.00 in0.0 mm 0.00 in0.0 mm
07:52 PM 81.7°F27.6°C 73.0°F22.8°C 75% 2.0 mph E3.2 kmh E 2.9 mph4.7 kmh 29.92 in1013.2 mb 0.00 in0.0 mm 0.00 in0.0 mm 0.00 in0.0 mm
07:57 PM 81.5°F27.5°C 72.9°F22.7°C 75% 2.0 mph E3.2 kmh E 4.0 mph6.4 kmh 29.92 in1013.2 mb 0.00 in0.0 mm 0.00 in0.0 mm 0.00 in0.0 mm
08:02 PM 81.7°F27.6°C 73.0°F22.8°C 75% 2.9 mph E4.7 kmh E 4.0 mph6.4 kmh 29.92 in1013.2 mb 0.00 in0.0 mm 0.00 in0.0 mm 0.00 in0.0 mm
08:07 PM 81.7°F27.6°C 73.4°F23.0°C 76% 2.0 mph E3.2 kmh E 4.0 mph6.4 kmh 29.92 in1013.2 mb 0.00 in0.0 mm 0.00 in0.0 mm 0.00 in0.0 mm
08:12 PM 81.7°F27.6°C 73.4°F23.0°C 76% 2.0 mph E3.2 kmh E 4.0 mph6.4 kmh 29.92 in1013.2 mb 0.00 in0.0 mm 0.00 in0.0 mm 0.00 in0.0 mm
08:17 PM 81.5°F27.5°C 73.2°F22.9°C 76% 2.0 mph E3.2 kmh E 4.0 mph6.4 kmh 29.92 in1013.2 mb 0.00 in0.0 mm 0.00 in0.0 mm 0.00 in0.0 mm
08:22 PM 81.5°F27.5°C 73.2°F22.9°C 76% 2.9 mph E4.7 kmh E 4.0 mph6.4 kmh 29.92 in1013.2 mb 0.00 in0.0 mm 0.00 in0.0 mm 0.00 in0.0 mm
08:27 PM 81.5°F27.5°C 73.2°F22.9°C 76% 2.0 mph ESE3.2 kmh ESE 4.0 mph6.4 kmh 29.92 in1013.2 mb 0.00 in0.0 mm 0.00 in0.0 mm 0.00 in0.0 mm
08:32 PM 81.3°F27.4°C 73.0°F22.8°C 76% 2.0 mph ESE3.2 kmh ESE 4.0 mph6.4 kmh 29.93 in1013.5 mb 0.00 in0.0 mm 0.00 in0.0 mm 0.00 in0.0 mm
08:37 PM 81.3°F27.4°C 73.0°F22.8°C 76% 2.0 mph ESE3.2 kmh ESE 4.0 mph6.4 kmh 29.92 in1013.2 mb 0.00 in0.0 mm 0.00 in0.0 mm 0.00 in0.0 mm
08:42 PM 81.3°F27.4°C 73.0°F22.8°C 76% 2.0 mph ESE3.2 kmh ESE 2.9 mph4.7 kmh 29.92 in1013.2 mb 0.00 in0.0 mm 0.00 in0.0 mm 0.00 in0.0 mm
08:47 PM 81.1°F27.3°C 72.5°F22.5°C 75% 2.0 mph ESE3.2 kmh ESE 2.9 mph4.7 kmh 29.92 in1013.2 mb 0.00 in0.0 mm 0.00 in0.0 mm 0.00 in0.0 mm
08:52 PM 81.3°F27.4°C 73.0°F22.8°C 76% 0.9 mph ESE1.4 kmh ESE 2.9 mph4.7 kmh 29.92 in1013.2 mb 0.00 in0.0 mm 0.00 in0.0 mm 0.00 in0.0 mm
08:57 PM 81.3°F27.4°C 73.0°F22.8°C 76% 0.9 mph ESE1.4 kmh ESE 2.9 mph4.7 kmh 29.92 in1013.2 mb 0.00 in0.0 mm 0.00 in0.0 mm 0.00 in0.0 mm
09:02 PM 81.3°F27.4°C 73.0°F22.8°C 76% 0.9 mph ESE1.4 kmh ESE 2.9 mph4.7 kmh 29.92 in1013.2 mb 0.00 in0.0 mm 0.00 in0.0 mm 0.00 in0.0 mm
09:07 PM 81.3°F27.4°C 72.7°F22.6°C 75% 0.9 mph ESE1.4 kmh ESE 2.9 mph4.7 kmh 29.92 in1013.2 mb 0.00 in0.0 mm 0.00 in0.0 mm 0.00 in0.0 mm
09:12 PM 81.3°F27.4°C 73.0°F22.8°C 76% Calm Calm 2.9 mph4.7 kmh 29.93 in1013.5 mb 0.00 in0.0 mm 0.00 in0.0 mm 0.00 in0.0 mm
09:17 PM 81.3°F27.4°C 73.0°F22.8°C 76% 0.9 mph ESE1.4 kmh ESE 2.9 mph4.7 kmh 29.93 in1013.5 mb 0.00 in0.0 mm 0.00 in0.0 mm 0.00 in0.0 mm
09:22 PM 81.1°F27.3°C 72.9°F22.7°C 76% 0.9 mph ESE1.4 kmh ESE 2.0 mph3.2 kmh 29.93 in1013.5 mb 0.00 in0.0 mm 0.00 in0.0 mm 0.00 in0.0 mm
09:27 PM 81.1°F27.3°C 72.9°F22.7°C 76% Calm Calm 2.0 mph3.2 kmh 29.93 in1013.5 mb 0.00 in0.0 mm 0.00 in0.0 mm 0.00 in0.0 mm
09:32 PM 81.1°F27.3°C 72.9°F22.7°C 76% 0.9 mph ESE1.4 kmh ESE 2.0 mph3.2 kmh 29.93 in1013.5 mb 0.00 in0.0 mm 0.00 in0.0 mm 0.00 in0.0 mm
09:37 PM 81.3°F27.4°C 73.0°F22.8°C 76% 0.9 mph ESE1.4 kmh ESE 2.0 mph3.2 kmh 29.93 in1013.5 mb 0.00 in0.0 mm 0.00 in0.0 mm 0.00 in0.0 mm
09:42 PM 81.3°F27.4°C 73.0°F22.8°C 76% 0.9 mph ESE1.4 kmh ESE 0.9 mph1.4 kmh 29.94 in1013.9 mb 0.00 in0.0 mm 0.00 in0.0 mm 0.00 in0.0 mm
09:47 PM 81.0°F27.2°C 72.7°F22.6°C 76% Calm Calm 2.0 mph3.2 kmh 29.94 in1013.9 mb 0.00 in0.0 mm 0.00 in0.0 mm 0.00 in0.0 mm
09:52 PM 81.1°F27.3°C 72.9°F22.7°C 76% 0.9 mph ESE1.4 kmh ESE 2.0 mph3.2 kmh 29.94 in1013.9 mb 0.00 in0.0 mm 0.00 in0.0 mm 0.00 in0.0 mm
09:57 PM 81.1°F27.3°C 73.2°F22.9°C 77% Calm Calm 0.9 mph1.4 kmh 29.94 in1013.9 mb 0.00 in0.0 mm 0.00 in0.0 mm 0.00 in0.0 mm
10:02 PM 81.0°F27.2°C 72.7°F22.6°C 76% Calm Calm -- 29.94 in1013.9 mb 0.00 in0.0 mm 0.00 in0.0 mm 0.00 in0.0 mm
10:07 PM 80.8°F27.1°C 72.5°F22.5°C 76% Calm Calm 3.0 mph4.8 kmh 29.94 in1013.9 mb 0.00 in0.0 mm 0.00 in0.0 mm 0.00 in0.0 mm
10:12 PM 80.4°F26.9°C 72.1°F22.3°C 76% 0.9 mph ESE1.4 kmh ESE 2.9 mph4.7 kmh 29.94 in1013.9 mb 0.00 in0.0 mm 0.00 in0.0 mm 0.00 in0.0 mm
10:17 PM 80.4°F26.9°C 72.1°F22.3°C 76% 0.9 mph ESE1.4 kmh ESE -- 29.93 in1013.5 mb 0.00 in0.0 mm 0.00 in0.0 mm 0.00 in0.0 mm
10:22 PM 80.4°F26.9°C 72.1°F22.3°C 76% Calm Calm 0.9 mph1.4 kmh 29.93 in1013.5 mb 0.00 in0.0 mm 0.00 in0.0 mm 0.00 in0.0 mm
10:27 PM 80.2°F26.8°C 72.0°F22.2°C 76% Calm Calm 0.9 mph1.4 kmh 29.94 in1013.9 mb 0.00 in0.0 mm 0.00 in0.0 mm 0.00 in0.0 mm
10:32 PM 80.2°F26.8°C 72.3°F22.4°C 77% Calm Calm 2.0 mph3.2 kmh 29.94 in1013.9 mb 0.00 in0.0 mm 0.00 in0.0 mm 0.00 in0.0 mm
10:37 PM 80.4°F26.9°C 72.5°F22.5°C 77% 0.9 mph ESE1.4 kmh ESE 2.0 mph3.2 kmh 29.94 in1013.9 mb 0.00 in0.0 mm 0.00 in0.0 mm 0.00 in0.0 mm
10:42 PM 80.2°F26.8°C 72.3°F22.4°C 77% 0.9 mph ESE1.4 kmh ESE 2.0 mph3.2 kmh 29.94 in1013.9 mb 0.00 in0.0 mm 0.00 in0.0 mm 0.00 in0.0 mm
10:47 PM 80.2°F26.8°C 72.3°F22.4°C 77% 0.9 mph ESE1.4 kmh ESE 2.0 mph3.2 kmh 29.94 in1013.9 mb 0.00 in0.0 mm 0.00 in0.0 mm 0.00 in0.0 mm
10:52 PM 80.1°F26.7°C 72.1°F22.3°C 77% 0.9 mph ESE1.4 kmh ESE 2.9 mph4.7 kmh 29.94 in1013.9 mb 0.00 in0.0 mm 0.00 in0.0 mm 0.00 in0.0 mm
10:57 PM 79.9°F26.6°C 72.0°F22.2°C 77% 2.0 mph ESE3.2 kmh ESE 4.0 mph6.4 kmh 29.94 in1013.9 mb 0.00 in0.0 mm 0.00 in0.0 mm 0.00 in0.0 mm
11:02 PM 79.9°F26.6°C 72.0°F22.2°C 77% 0.9 mph ESE1.4 kmh ESE -- 29.93 in1013.5 mb 0.00 in0.0 mm 0.00 in0.0 mm 0.00 in0.0 mm
11:07 PM 79.7°F26.5°C 71.8°F22.1°C 77% Calm Calm 2.0 mph3.2 kmh 29.93 in1013.5 mb 0.00 in0.0 mm 0.00 in0.0 mm 0.00 in0.0 mm
11:12 PM 79.7°F26.5°C 72.1°F22.3°C 78% 0.9 mph ESE1.4 kmh ESE 2.9 mph4.7 kmh 29.94 in1013.9 mb 0.00 in0.0 mm 0.00 in0.0 mm 0.00 in0.0 mm
11:17 PM 79.5°F26.4°C 72.1°F22.3°C 78% 2.0 mph ESE3.2 kmh ESE 2.9 mph4.7 kmh 29.93 in1013.5 mb 0.00 in0.0 mm 0.00 in0.0 mm 0.00 in0.0 mm
11:22 PM 79.5°F26.4°C 72.1°F22.3°C 78% 0.9 mph ESE1.4 kmh ESE 2.9 mph4.7 kmh 29.93 in1013.5 mb 0.00 in0.0 mm 0.00 in0.0 mm 0.00 in0.0 mm
11:27 PM 79.3°F26.3°C 72.0°F22.2°C 78% 0.9 mph ESE1.4 kmh ESE 2.9 mph4.7 kmh 29.93 in1013.5 mb 0.00 in0.0 mm 0.00 in0.0 mm 0.00 in0.0 mm
11:32 PM 79.3°F26.3°C 72.0°F22.2°C 78% 0.9 mph ESE1.4 kmh ESE -- 29.93 in1013.5 mb 0.00 in0.0 mm 0.00 in0.0 mm 0.00 in0.0 mm
11:37 PM 79.3°F26.3°C 72.0°F22.2°C 78% Calm Calm 0.9 mph1.4 kmh 29.93 in1013.5 mb 0.00 in0.0 mm 0.00 in0.0 mm 0.00 in0.0 mm
11:42 PM 79.3°F26.3°C 72.0°F22.2°C 78% Calm Calm 2.0 mph3.2 kmh 29.93 in1013.5 mb 0.00 in0.0 mm 0.00 in0.0 mm 0.00 in0.0 mm
11:47 PM 79.3°F26.3°C 72.0°F22.2°C 78% 0.9 mph ESE1.4 kmh ESE 2.0 mph3.2 kmh 29.93 in1013.5 mb 0.00 in0.0 mm 0.00 in0.0 mm 0.00 in0.0 mm
11:52 PM 79.2°F26.2°C 71.8°F22.1°C 78% 0.9 mph SE1.4 kmh SE 2.0 mph3.2 kmh 29.93 in1013.5 mb 0.00 in0.0 mm 0.00 in0.0 mm 0.00 in0.0 mm
11:57 PM 79.2°F26.2°C 71.8°F22.1°C 78% Calm Calm -- 29.94 in1013.9 mb 0.00 in0.0 mm 0.00 in0.0 mm 0.00 in0.0 mm